バンダルスリブガワン の空港の天気 - METARとTAF

ブルネイ国際空港 ( WBSB / BWN ) - ブルネイ バンダルスリブガワン
飛行場実況気象(Metar)
観測時間01/19 19:00 BNT (01/19 11:00 UTC)
風向・風速北北東 4m/s
視程10km以上
天気現象
全天の4割程度の雲 雲底高度 460m
全天の4割程度の雲 雲底高度 4270m
全天の8割程度の雲 雲底高度 9140m
気温28℃
湿度84%
気圧1008hPa
METARWBSB 191100Z 02008KT 9999 SCT015 SCT140 BKN300 28/25 Q1008 NOSIG
過去の天気等 Google飛行場航空写真 Wunderground天気予報

過去48時間のMETAR

飛行場予報(TAF)
発表時間: 1/19 12:50 BNT (1/19 04:50 UTC)
予報対象時間: 19日14時 BNT ~ 20日20時 BNT
風向・風速北東 6m/s
視程10km以上
少しの雲 雲底高度 520m
19日21時 BNT ~ 19日23時 BNT に徐々に
風向・風速東 2m/s
少しの雲 雲底高度 460m
TAF WBSB 190450Z 1906/2012 05012KT 9999 FEW017
BECMG 1913/1915 10003KT FEW015